sensor_id;sensor_type;location;lat;lon;timestamp;P1;durP1;ratioP1;P2;durP2;ratioP2
46953;SDS011;32707;43.886;12.874;2022-08-11T00:00:31;6.13;;;1.48;;
46953;SDS011;32707;43.886;12.874;2022-08-11T00:03:02;2.50;;;1.50;;
46953;SDS011;32707;43.886;12.874;2022-08-11T00:05:30;12.57;;;2.13;;
46953;SDS011;32707;43.886;12.874;2022-08-11T00:07:56;7.57;;;1.63;;
46953;SDS011;32707;43.886;12.874;2022-08-11T00:10:24;7.40;;;1.80;;
46953;SDS011;32707;43.886;12.874;2022-08-11T00:12:56;5.10;;;1.63;;
46953;SDS011;32707;43.886;12.874;2022-08-11T00:18:02;4.40;;;1.50;;
46953;SDS011;32707;43.886;12.874;2022-08-11T00:20:34;7.20;;;1.75;;
46953;SDS011;32707;43.886;12.874;2022-08-11T00:23:14;9.52;;;1.63;;
46953;SDS011;32707;43.886;12.874;2022-08-11T00:25:45;9.20;;;2.38;;
46953;SDS011;32707;43.886;12.874;2022-08-11T00:28:33;6.95;;;1.75;;
46953;SDS011;32707;43.886;12.874;2022-08-11T00:31:05;6.93;;;1.63;;
46953;SDS011;32707;43.886;12.874;2022-08-11T00:33:38;2.70;;;1.48;;
46953;SDS011;32707;43.886;12.874;2022-08-11T00:36:07;8.05;;;1.83;;
46953;SDS011;32707;43.886;12.874;2022-08-11T00:38:35;7.28;;;1.35;;
46953;SDS011;32707;43.886;12.874;2022-08-11T00:41:05;7.90;;;1.73;;
46953;SDS011;32707;43.886;12.874;2022-08-11T00:47:01;5.25;;;1.65;;
46953;SDS011;32707;43.886;12.874;2022-08-11T01:00:36;5.65;;;1.48;;
46953;SDS011;32707;43.886;12.874;2022-08-11T01:43:06;5.70;;;1.60;;
46953;SDS011;32707;43.886;12.874;2022-08-11T01:54:13;3.15;;;1.50;;
46953;SDS011;32707;43.886;12.874;2022-08-11T01:59:35;5.03;;;1.83;;
46953;SDS011;32707;43.886;12.874;2022-08-11T02:05:56;7.25;;;1.80;;
46953;SDS011;32707;43.886;12.874;2022-08-11T02:08:22;2.60;;;1.50;;
46953;SDS011;32707;43.886;12.874;2022-08-11T02:11:26;5.30;;;1.75;;
46953;SDS011;32707;43.886;12.874;2022-08-11T02:13:59;7.82;;;1.50;;
46953;SDS011;32707;43.886;12.874;2022-08-11T02:16:39;2.72;;;1.20;;
46953;SDS011;32707;43.886;12.874;2022-08-11T02:19:33;3.63;;;1.52;;
46953;SDS011;32707;43.886;12.874;2022-08-11T02:28:26;3.92;;;1.45;;
46953;SDS011;32707;43.886;12.874;2022-08-11T02:31:07;3.00;;;1.27;;
46953;SDS011;32707;43.886;12.874;2022-08-11T02:34:44;7.13;;;1.52;;
46953;SDS011;32707;43.886;12.874;2022-08-11T02:39:47;3.90;;;1.48;;
46953;SDS011;32707;43.886;12.874;2022-08-11T03:07:24;1.90;;;1.50;;
46953;SDS011;32707;43.886;12.874;2022-08-11T03:12:53;8.18;;;1.92;;
46953;SDS011;32707;43.886;12.874;2022-08-11T03:18:55;4.28;;;1.58;;
46953;SDS011;32707;43.886;12.874;2022-08-11T03:21:34;6.45;;;1.70;;
46953;SDS011;32707;43.886;12.874;2022-08-11T03:24:28;5.97;;;1.77;;
46953;SDS011;32707;43.886;12.874;2022-08-11T03:30:04;4.05;;;1.50;;
46953;SDS011;32707;43.886;12.874;2022-08-11T03:44:55;4.28;;;1.40;;
46953;SDS011;32707;43.886;12.874;2022-08-11T03:57:07;4.93;;;1.65;;
46953;SDS011;32707;43.886;12.874;2022-08-11T04:05:05;4.05;;;1.40;;
46953;SDS011;32707;43.886;12.874;2022-08-11T04:13:14;3.28;;;1.40;;
46953;SDS011;32707;43.886;12.874;2022-08-11T04:16:07;4.25;;;1.85;;
46953;SDS011;32707;43.886;12.874;2022-08-11T04:35:49;3.50;;;1.60;;
46953;SDS011;32707;43.886;12.874;2022-08-11T04:41:28;3.97;;;1.50;;
46953;SDS011;32707;43.886;12.874;2022-08-11T04:52:23;8.73;;;1.60;;
46953;SDS011;32707;43.886;12.874;2022-08-11T05:07:29;2.95;;;1.75;;
46953;SDS011;32707;43.886;12.874;2022-08-11T05:13:00;2.65;;;1.00;;
46953;SDS011;32707;43.886;12.874;2022-08-11T05:16:01;4.13;;;1.58;;
46953;SDS011;32707;43.886;12.874;2022-08-11T05:18:54;3.50;;;1.80;;
46953;SDS011;32707;43.886;12.874;2022-08-11T05:21:40;1.35;;;1.17;;
46953;SDS011;32707;43.886;12.874;2022-08-11T05:24:30;3.78;;;1.95;;
46953;SDS011;32707;43.886;12.874;2022-08-11T05:27:36;7.60;;;1.90;;
46953;SDS011;32707;43.886;12.874;2022-08-11T05:30:28;11.35;;;1.73;;
46953;SDS011;32707;43.886;12.874;2022-08-11T05:33:23;9.75;;;1.80;;
46953;SDS011;32707;43.886;12.874;2022-08-11T05:39:15;9.77;;;1.80;;
46953;SDS011;32707;43.886;12.874;2022-08-11T05:42:02;3.45;;;1.67;;
46953;SDS011;32707;43.886;12.874;2022-08-11T05:44:49;6.03;;;2.60;;
46953;SDS011;32707;43.886;12.874;2022-08-11T05:47:34;6.00;;;2.08;;
46953;SDS011;32707;43.886;12.874;2022-08-11T05:50:20;4.13;;;1.83;;
46953;SDS011;32707;43.886;12.874;2022-08-11T05:53:08;2.85;;;1.23;;
46953;SDS011;32707;43.886;12.874;2022-08-11T05:55:53;4.68;;;1.35;;
46953;SDS011;32707;43.886;12.874;2022-08-11T05:58:39;7.70;;;1.35;;
46953;SDS011;32707;43.886;12.874;2022-08-11T06:01:07;3.38;;;1.15;;
46953;SDS011;32707;43.886;12.874;2022-08-11T06:03:35;2.08;;;1.40;;
46953;SDS011;32707;43.886;12.874;2022-08-11T06:06:23;9.32;;;1.70;;
46953;SDS011;32707;43.886;12.874;2022-08-11T06:08:54;2.88;;;1.45;;
46953;SDS011;32707;43.886;12.874;2022-08-11T06:11:21;8.77;;;1.88;;
46953;SDS011;32707;43.886;12.874;2022-08-11T06:13:48;11.85;;;1.30;;
46953;SDS011;32707;43.886;12.874;2022-08-11T06:16:20;4.40;;;1.58;;
46953;SDS011;32707;43.886;12.874;2022-08-11T06:18:49;7.03;;;1.77;;
46953;SDS011;32707;43.886;12.874;2022-08-11T06:21:15;2.40;;;1.10;;
46953;SDS011;32707;43.886;12.874;2022-08-11T06:23:41;2.22;;;1.30;;
46953;SDS011;32707;43.886;12.874;2022-08-11T06:26:08;15.60;;;2.47;;
46953;SDS011;32707;43.886;12.874;2022-08-11T06:28:36;8.05;;;1.13;;
46953;SDS011;32707;43.886;12.874;2022-08-11T06:31:10;3.58;;;1.30;;
46953;SDS011;32707;43.886;12.874;2022-08-11T06:33:52;8.80;;;2.10;;
46953;SDS011;32707;43.886;12.874;2022-08-11T06:36:33;8.73;;;1.40;;
46953;SDS011;32707;43.886;12.874;2022-08-11T06:39:09;3.38;;;1.27;;
46953;SDS011;32707;43.886;12.874;2022-08-11T06:41:56;4.60;;;1.05;;
46953;SDS011;32707;43.886;12.874;2022-08-11T06:46:53;1.50;;;1.15;;
46953;SDS011;32707;43.886;12.874;2022-08-11T06:49:31;2.00;;;1.05;;
46953;SDS011;32707;43.886;12.874;2022-08-11T06:52:17;3.17;;;1.60;;
46953;SDS011;32707;43.886;12.874;2022-08-11T06:54:47;1.90;;;1.23;;
46953;SDS011;32707;43.886;12.874;2022-08-11T06:57:18;3.25;;;1.17;;
46953;SDS011;32707;43.886;12.874;2022-08-11T07:00:04;2.70;;;1.05;;
46953;SDS011;32707;43.886;12.874;2022-08-11T07:02:57;2.33;;;0.95;;
46953;SDS011;32707;43.886;12.874;2022-08-11T07:11:31;1.67;;;1.08;;
46953;SDS011;32707;43.886;12.874;2022-08-11T07:14:37;8.88;;;1.30;;
46953;SDS011;32707;43.886;12.874;2022-08-11T07:17:24;1.60;;;0.82;;
46953;SDS011;32707;43.886;12.874;2022-08-11T07:19:52;3.30;;;1.08;;
46953;SDS011;32707;43.886;12.874;2022-08-11T07:22:37;28.65;;;1.38;;
46953;SDS011;32707;43.886;12.874;2022-08-11T07:25:23;3.40;;;1.27;;
46953;SDS011;32707;43.886;12.874;2022-08-11T07:28:13;8.25;;;1.42;;
46953;SDS011;32707;43.886;12.874;2022-08-11T07:31:06;1.30;;;0.68;;
46953;SDS011;32707;43.886;12.874;2022-08-11T07:36:30;3.47;;;0.98;;
46953;SDS011;32707;43.886;12.874;2022-08-11T07:38:56;5.32;;;0.90;;
46953;SDS011;32707;43.886;12.874;2022-08-11T07:41:23;11.32;;;1.52;;
46953;SDS011;32707;43.886;12.874;2022-08-11T07:43:54;5.82;;;1.15;;
46953;SDS011;32707;43.886;12.874;2022-08-11T07:46:32;4.68;;;0.90;;
46953;SDS011;32707;43.886;12.874;2022-08-11T07:49:21;4.93;;;0.98;;
46953;SDS011;32707;43.886;12.874;2022-08-11T07:52:06;1.27;;;1.15;;
46953;SDS011;32707;43.886;12.874;2022-08-11T07:54:51;3.80;;;1.13;;
46953;SDS011;32707;43.886;12.874;2022-08-11T07:57:17;10.23;;;1.33;;
46953;SDS011;32707;43.886;12.874;2022-08-11T08:00:02;1.77;;;0.98;;
46953;SDS011;32707;43.886;12.874;2022-08-11T08:02:46;2.17;;;1.08;;
46953;SDS011;32707;43.886;12.874;2022-08-11T08:05:30;1.15;;;0.80;;
46953;SDS011;32707;43.886;12.874;2022-08-11T08:08:14;0.85;;;0.80;;
46953;SDS011;32707;43.886;12.874;2022-08-11T08:10:59;1.10;;;1.00;;
46953;SDS011;32707;43.886;12.874;2022-08-11T08:13:44;2.92;;;0.75;;
46953;SDS011;32707;43.886;12.874;2022-08-11T08:16:29;1.55;;;1.45;;
46953;SDS011;32707;43.886;12.874;2022-08-11T08:19:13;1.33;;;0.85;;
46953;SDS011;32707;43.886;12.874;2022-08-11T08:21:41;0.60;;;0.60;;
46953;SDS011;32707;43.886;12.874;2022-08-11T08:24:08;1.33;;;0.95;;
46953;SDS011;32707;43.886;12.874;2022-08-11T08:26:34;2.60;;;0.90;;
46953;SDS011;32707;43.886;12.874;2022-08-11T08:29:19;3.08;;;1.02;;
46953;SDS011;32707;43.886;12.874;2022-08-11T08:32:04;5.18;;;0.90;;
46953;SDS011;32707;43.886;12.874;2022-08-11T08:34:30;0.95;;;0.95;;
46953;SDS011;32707;43.886;12.874;2022-08-11T08:36:56;3.25;;;0.75;;
46953;SDS011;32707;43.886;12.874;2022-08-11T08:39:22;0.90;;;0.70;;
46953;SDS011;32707;43.886;12.874;2022-08-11T08:41:49;1.25;;;0.73;;
46953;SDS011;32707;43.886;12.874;2022-08-11T08:44:18;3.63;;;1.10;;
46953;SDS011;32707;43.886;12.874;2022-08-11T08:46:50;1.42;;;1.10;;
46953;SDS011;32707;43.886;12.874;2022-08-11T08:49:21;4.57;;;0.82;;
46953;SDS011;32707;43.886;12.874;2022-08-11T08:51:51;0.70;;;0.70;;
46953;SDS011;32707;43.886;12.874;2022-08-11T08:54:24;3.05;;;0.90;;
46953;SDS011;32707;43.886;12.874;2022-08-11T08:56:54;0.73;;;0.73;;
46953;SDS011;32707;43.886;12.874;2022-08-11T08:59:21;0.68;;;0.65;;
46953;SDS011;32707;43.886;12.874;2022-08-11T09:01:52;8.52;;;1.80;;
46953;SDS011;32707;43.886;12.874;2022-08-11T09:04:23;2.00;;;0.95;;
46953;SDS011;32707;43.886;12.874;2022-08-11T09:06:50;1.00;;;0.93;;
46953;SDS011;32707;43.886;12.874;2022-08-11T09:09:18;1.05;;;0.73;;
46953;SDS011;32707;43.886;12.874;2022-08-11T09:11:46;2.30;;;0.90;;
46953;SDS011;32707;43.886;12.874;2022-08-11T09:14:20;1.45;;;1.00;;
46953;SDS011;32707;43.886;12.874;2022-08-11T09:16:48;2.25;;;1.10;;
46953;SDS011;32707;43.886;12.874;2022-08-11T09:19:15;1.48;;;1.10;;
46953;SDS011;32707;43.886;12.874;2022-08-11T09:21:43;5.85;;;1.20;;
46953;SDS011;32707;43.886;12.874;2022-08-11T09:24:30;0.80;;;0.80;;
46953;SDS011;32707;43.886;12.874;2022-08-11T09:27:14;1.00;;;0.80;;
46953;SDS011;32707;43.886;12.874;2022-08-11T09:29:40;1.75;;;0.80;;
46953;SDS011;32707;43.886;12.874;2022-08-11T09:32:05;2.38;;;0.90;;
46953;SDS011;32707;43.886;12.874;2022-08-11T09:34:33;1.90;;;1.13;;
46953;SDS011;32707;43.886;12.874;2022-08-11T09:37:01;10.63;;;1.20;;
46953;SDS011;32707;43.886;12.874;2022-08-11T09:39:47;1.05;;;0.85;;
46953;SDS011;32707;43.886;12.874;2022-08-11T09:42:31;0.82;;;0.82;;
46953;SDS011;32707;43.886;12.874;2022-08-11T09:45:16;1.35;;;0.90;;
46953;SDS011;32707;43.886;12.874;2022-08-11T09:47:42;0.85;;;0.70;;
46953;SDS011;32707;43.886;12.874;2022-08-11T09:50:08;7.18;;;1.55;;
46953;SDS011;32707;43.886;12.874;2022-08-11T09:52:36;0.95;;;0.88;;
46953;SDS011;32707;43.886;12.874;2022-08-11T09:55:04;2.13;;;1.17;;
46953;SDS011;32707;43.886;12.874;2022-08-11T09:57:35;1.92;;;1.20;;
46953;SDS011;32707;43.886;12.874;2022-08-11T10:00:29;0.80;;;0.80;;
46953;SDS011;32707;43.886;12.874;2022-08-11T10:02:58;1.08;;;1.02;;
46953;SDS011;32707;43.886;12.874;2022-08-11T10:05:26;8.18;;;1.00;;
46953;SDS011;32707;43.886;12.874;2022-08-11T10:08:12;3.75;;;1.00;;
46953;SDS011;32707;43.886;12.874;2022-08-11T10:10:41;1.00;;;0.98;;
46953;SDS011;32707;43.886;12.874;2022-08-11T10:13:10;1.40;;;1.30;;
46953;SDS011;32707;43.886;12.874;2022-08-11T10:15:40;4.78;;;0.80;;
46953;SDS011;32707;43.886;12.874;2022-08-11T10:18:17;2.72;;;1.02;;
46953;SDS011;32707;43.886;12.874;2022-08-11T10:21:49;8.07;;;1.20;;
46953;SDS011;32707;43.886;12.874;2022-08-11T10:24:01;1.42;;;1.00;;
46953;SDS011;32707;43.886;12.874;2022-08-11T10:26:48;1.15;;;0.88;;
46953;SDS011;32707;43.886;12.874;2022-08-11T10:29:14;2.42;;;1.05;;
46953;SDS011;32707;43.886;12.874;2022-08-11T10:32:00;2.70;;;1.05;;
46953;SDS011;32707;43.886;12.874;2022-08-11T10:34:46;1.08;;;0.88;;
46953;SDS011;32707;43.886;12.874;2022-08-11T10:37:13;2.05;;;0.90;;
46953;SDS011;32707;43.886;12.874;2022-08-11T10:39:41;3.55;;;0.70;;
46953;SDS011;32707;43.886;12.874;2022-08-11T10:42:08;1.98;;;0.80;;
46953;SDS011;32707;43.886;12.874;2022-08-11T10:44:53;2.13;;;0.98;;
46953;SDS011;32707;43.886;12.874;2022-08-11T10:47:21;1.70;;;1.10;;
46953;SDS011;32707;43.886;12.874;2022-08-11T10:50:01;2.60;;;1.08;;
46953;SDS011;32707;43.886;12.874;2022-08-11T10:52:50;4.65;;;0.93;;
46953;SDS011;32707;43.886;12.874;2022-08-11T10:55:35;1.50;;;0.93;;
46953;SDS011;32707;43.886;12.874;2022-08-11T10:58:21;6.50;;;1.20;;
46953;SDS011;32707;43.886;12.874;2022-08-11T11:01:07;1.48;;;0.82;;
46953;SDS011;32707;43.886;12.874;2022-08-11T11:03:34;1.10;;;1.00;;
46953;SDS011;32707;43.886;12.874;2022-08-11T11:06:05;0.93;;;0.77;;
46953;SDS011;32707;43.886;12.874;2022-08-11T11:08:36;3.25;;;1.20;;
46953;SDS011;32707;43.886;12.874;2022-08-11T11:11:24;8.40;;;0.95;;
46953;SDS011;32707;43.886;12.874;2022-08-11T11:14:11;0.70;;;0.70;;
46953;SDS011;32707;43.886;12.874;2022-08-11T11:17:03;0.70;;;0.70;;
46953;SDS011;32707;43.886;12.874;2022-08-11T11:19:33;1.10;;;0.98;;
46953;SDS011;32707;43.886;12.874;2022-08-11T11:22:05;1.30;;;0.90;;
46953;SDS011;32707;43.886;12.874;2022-08-11T11:30:09;7.03;;;1.30;;
46953;SDS011;32707;43.886;12.874;2022-08-11T11:38:11;0.85;;;0.80;;
46953;SDS011;32707;43.886;12.874;2022-08-11T11:40:37;3.13;;;1.27;;
46953;SDS011;32707;43.886;12.874;2022-08-11T11:43:04;6.18;;;2.38;;
46953;SDS011;32707;43.886;12.874;2022-08-11T11:45:30;5.35;;;1.08;;
46953;SDS011;32707;43.886;12.874;2022-08-11T11:47:57;0.93;;;0.93;;
46953;SDS011;32707;43.886;12.874;2022-08-11T11:50:28;2.05;;;1.05;;
46953;SDS011;32707;43.886;12.874;2022-08-11T11:52:59;1.55;;;0.90;;
46953;SDS011;32707;43.886;12.874;2022-08-11T11:55:25;1.05;;;0.70;;
46953;SDS011;32707;43.886;12.874;2022-08-11T11:57:52;1.95;;;1.13;;
46953;SDS011;32707;43.886;12.874;2022-08-11T12:00:38;2.00;;;0.80;;
46953;SDS011;32707;43.886;12.874;2022-08-11T12:03:24;0.68;;;0.68;;
46953;SDS011;32707;43.886;12.874;2022-08-11T12:05:51;2.05;;;0.90;;
46953;SDS011;32707;43.886;12.874;2022-08-11T12:08:17;0.98;;;0.88;;
46953;SDS011;32707;43.886;12.874;2022-08-11T12:10:52;0.50;;;0.47;;
46953;SDS011;32707;43.886;12.874;2022-08-11T12:13:46;1.20;;;0.63;;
46953;SDS011;32707;43.886;12.874;2022-08-11T12:16:14;3.40;;;1.10;;
46953;SDS011;32707;43.886;12.874;2022-08-11T12:18:43;0.65;;;0.65;;
46953;SDS011;32707;43.886;12.874;2022-08-11T12:21:11;1.08;;;0.82;;
46953;SDS011;32707;43.886;12.874;2022-08-11T12:23:39;1.23;;;0.75;;
46953;SDS011;32707;43.886;12.874;2022-08-11T12:26:25;2.17;;;0.90;;
46953;SDS011;32707;43.886;12.874;2022-08-11T12:29:23;1.02;;;0.77;;
46953;SDS011;32707;43.886;12.874;2022-08-11T12:31:52;1.13;;;0.82;;
46953;SDS011;32707;43.886;12.874;2022-08-11T12:34:19;2.15;;;0.90;;
46953;SDS011;32707;43.886;12.874;2022-08-11T12:36:49;1.33;;;0.98;;
46953;SDS011;32707;43.886;12.874;2022-08-11T12:39:22;0.73;;;0.73;;
46953;SDS011;32707;43.886;12.874;2022-08-11T12:42:10;0.55;;;0.55;;
46953;SDS011;32707;43.886;12.874;2022-08-11T12:44:56;1.85;;;0.80;;
46953;SDS011;32707;43.886;12.874;2022-08-11T12:47:48;3.38;;;0.70;;
46953;SDS011;32707;43.886;12.874;2022-08-11T12:50:34;1.30;;;0.90;;
46953;SDS011;32707;43.886;12.874;2022-08-11T12:53:22;9.50;;;0.73;;
46953;SDS011;32707;43.886;12.874;2022-08-11T12:55:52;3.03;;;0.88;;
46953;SDS011;32707;43.886;12.874;2022-08-11T12:58:45;0.52;;;0.50;;
46953;SDS011;32707;43.886;12.874;2022-08-11T13:01:13;6.65;;;0.85;;
46953;SDS011;32707;43.886;12.874;2022-08-11T13:03:58;7.25;;;0.90;;
46953;SDS011;32707;43.886;12.874;2022-08-11T13:06:43;4.88;;;1.02;;
46953;SDS011;32707;43.886;12.874;2022-08-11T13:09:11;1.77;;;0.80;;
46953;SDS011;32707;43.886;12.874;2022-08-11T13:11:37;1.77;;;0.70;;
46953;SDS011;32707;43.886;12.874;2022-08-11T13:14:23;3.58;;;0.80;;
46953;SDS011;32707;43.886;12.874;2022-08-11T13:16:51;0.65;;;0.65;;
46953;SDS011;32707;43.886;12.874;2022-08-11T13:19:35;4.70;;;0.60;;
46953;SDS011;32707;43.886;12.874;2022-08-11T13:22:05;1.30;;;0.60;;
46953;SDS011;32707;43.886;12.874;2022-08-11T13:24:31;1.70;;;0.88;;
46953;SDS011;32707;43.886;12.874;2022-08-11T13:26:58;1.55;;;0.80;;
46953;SDS011;32707;43.886;12.874;2022-08-11T13:29:25;1.27;;;0.63;;
46953;SDS011;32707;43.886;12.874;2022-08-11T13:31:53;0.88;;;0.60;;
46953;SDS011;32707;43.886;12.874;2022-08-11T13:34:24;7.15;;;1.45;;
46953;SDS011;32707;43.886;12.874;2022-08-11T13:36:52;8.13;;;0.75;;
46953;SDS011;32707;43.886;12.874;2022-08-11T13:39:23;6.85;;;0.70;;
46953;SDS011;32707;43.886;12.874;2022-08-11T13:41:54;2.63;;;0.60;;
46953;SDS011;32707;43.886;12.874;2022-08-11T13:44:21;1.77;;;0.70;;
46953;SDS011;32707;43.886;12.874;2022-08-11T13:46:51;10.30;;;0.70;;
46953;SDS011;32707;43.886;12.874;2022-08-11T13:49:20;2.72;;;1.02;;
46953;SDS011;32707;43.886;12.874;2022-08-11T13:51:46;4.15;;;0.90;;
46953;SDS011;32707;43.886;12.874;2022-08-11T13:54:16;4.47;;;0.80;;
46953;SDS011;32707;43.886;12.874;2022-08-11T13:56:46;1.00;;;0.50;;
46953;SDS011;32707;43.886;12.874;2022-08-11T13:59:14;3.60;;;1.25;;
46953;SDS011;32707;43.886;12.874;2022-08-11T14:01:47;0.32;;;0.32;;
46953;SDS011;32707;43.886;12.874;2022-08-11T14:04:16;5.57;;;0.80;;
46953;SDS011;32707;43.886;12.874;2022-08-11T14:06:50;1.95;;;0.40;;
46953;SDS011;32707;43.886;12.874;2022-08-11T14:09:19;3.22;;;0.93;;
46953;SDS011;32707;43.886;12.874;2022-08-11T14:11:49;1.80;;;0.55;;
46953;SDS011;32707;43.886;12.874;2022-08-11T14:14:35;1.50;;;0.70;;
46953;SDS011;32707;43.886;12.874;2022-08-11T14:17:05;1.27;;;0.70;;
46953;SDS011;32707;43.886;12.874;2022-08-11T14:19:39;0.90;;;0.60;;
46953;SDS011;32707;43.886;12.874;2022-08-11T14:22:08;2.03;;;0.52;;
46953;SDS011;32707;43.886;12.874;2022-08-11T14:24:38;1.27;;;0.70;;
46953;SDS011;32707;43.886;12.874;2022-08-11T14:27:05;0.88;;;0.63;;
46953;SDS011;32707;43.886;12.874;2022-08-11T14:29:33;2.45;;;0.57;;
46953;SDS011;32707;43.886;12.874;2022-08-11T14:32:07;0.60;;;0.60;;
46953;SDS011;32707;43.886;12.874;2022-08-11T14:34:34;4.60;;;0.80;;
46953;SDS011;32707;43.886;12.874;2022-08-11T14:37:03;2.10;;;0.60;;
46953;SDS011;32707;43.886;12.874;2022-08-11T14:39:32;0.43;;;0.43;;
46953;SDS011;32707;43.886;12.874;2022-08-11T14:42:04;2.15;;;0.80;;
46953;SDS011;32707;43.886;12.874;2022-08-11T14:44:56;1.80;;;0.80;;
46953;SDS011;32707;43.886;12.874;2022-08-11T14:47:49;3.63;;;1.05;;
46953;SDS011;32707;43.886;12.874;2022-08-11T14:50:18;3.13;;;0.43;;
46953;SDS011;32707;43.886;12.874;2022-08-11T14:52:51;0.60;;;0.55;;
46953;SDS011;32707;43.886;12.874;2022-08-11T14:55:21;1.33;;;0.70;;
46953;SDS011;32707;43.886;12.874;2022-08-11T14:58:12;3.88;;;0.77;;
46953;SDS011;32707;43.886;12.874;2022-08-11T15:00:41;3.25;;;0.80;;
46953;SDS011;32707;43.886;12.874;2022-08-11T15:03:09;1.05;;;0.50;;
46953;SDS011;32707;43.886;12.874;2022-08-11T15:05:57;1.33;;;0.93;;
46953;SDS011;32707;43.886;12.874;2022-08-11T15:08:29;0.98;;;0.73;;
46953;SDS011;32707;43.886;12.874;2022-08-11T15:11:17;1.23;;;0.70;;
46953;SDS011;32707;43.886;12.874;2022-08-11T15:14:04;0.80;;;0.80;;
46953;SDS011;32707;43.886;12.874;2022-08-11T15:16:32;0.80;;;0.65;;
46953;SDS011;32707;43.886;12.874;2022-08-11T15:19:23;4.88;;;0.50;;
46953;SDS011;32707;43.886;12.874;2022-08-11T15:21:49;1.33;;;0.68;;
46953;SDS011;32707;43.886;12.874;2022-08-11T15:24:34;1.05;;;0.80;;
46953;SDS011;32707;43.886;12.874;2022-08-11T15:27:00;2.80;;;0.60;;
46953;SDS011;32707;43.886;12.874;2022-08-11T15:29:47;0.80;;;0.65;;
46953;SDS011;32707;43.886;12.874;2022-08-11T15:32:36;1.63;;;0.50;;
46953;SDS011;32707;43.886;12.874;2022-08-11T15:35:23;7.80;;;0.82;;
46953;SDS011;32707;43.886;12.874;2022-08-11T15:38:10;0.68;;;0.60;;
46953;SDS011;32707;43.886;12.874;2022-08-11T15:40:40;6.70;;;0.65;;
46953;SDS011;32707;43.886;12.874;2022-08-11T15:43:30;0.95;;;0.50;;
46953;SDS011;32707;43.886;12.874;2022-08-11T15:49:28;0.45;;;0.40;;
46953;SDS011;32707;43.886;12.874;2022-08-11T15:52:02;0.70;;;0.40;;
46953;SDS011;32707;43.886;12.874;2022-08-11T15:54:33;2.47;;;0.65;;
46953;SDS011;32707;43.886;12.874;2022-08-11T15:57:02;6.68;;;0.90;;
46953;SDS011;32707;43.886;12.874;2022-08-11T15:59:30;2.28;;;0.60;;
46953;SDS011;32707;43.886;12.874;2022-08-11T16:02:18;4.88;;;0.75;;
46953;SDS011;32707;43.886;12.874;2022-08-11T16:05:09;0.55;;;0.55;;
46953;SDS011;32707;43.886;12.874;2022-08-11T16:07:37;2.60;;;0.47;;
46953;SDS011;32707;43.886;12.874;2022-08-11T16:10:06;3.17;;;0.95;;
46953;SDS011;32707;43.886;12.874;2022-08-11T16:12:52;5.97;;;0.60;;
46953;SDS011;32707;43.886;12.874;2022-08-11T16:15:28;8.10;;;0.90;;
46953;SDS011;32707;43.886;12.874;2022-08-11T16:18:13;1.42;;;0.70;;
46953;SDS011;32707;43.886;12.874;2022-08-11T16:20:40;2.40;;;0.60;;
46953;SDS011;32707;43.886;12.874;2022-08-11T16:23:08;0.47;;;0.47;;
46953;SDS011;32707;43.886;12.874;2022-08-11T16:25:34;1.00;;;0.32;;
46953;SDS011;32707;43.886;12.874;2022-08-11T16:28:03;0.75;;;0.50;;
46953;SDS011;32707;43.886;12.874;2022-08-11T16:30:37;2.17;;;0.52;;
46953;SDS011;32707;43.886;12.874;2022-08-11T16:33:05;1.27;;;0.65;;
46953;SDS011;32707;43.886;12.874;2022-08-11T16:35:33;4.40;;;0.77;;
46953;SDS011;32707;43.886;12.874;2022-08-11T16:38:24;1.02;;;0.70;;
46953;SDS011;32707;43.886;12.874;2022-08-11T16:41:13;3.05;;;0.70;;
46953;SDS011;32707;43.886;12.874;2022-08-11T16:44:02;5.57;;;0.68;;
46953;SDS011;32707;43.886;12.874;2022-08-11T16:46:48;3.95;;;0.47;;
46953;SDS011;32707;43.886;12.874;2022-08-11T16:49:30;0.95;;;0.47;;
46953;SDS011;32707;43.886;12.874;2022-08-11T16:52:00;0.75;;;0.75;;
46953;SDS011;32707;43.886;12.874;2022-08-11T16:54:31;4.28;;;0.88;;
46953;SDS011;32707;43.886;12.874;2022-08-11T16:56:58;2.97;;;0.80;;
46953;SDS011;32707;43.886;12.874;2022-08-11T16:59:47;1.45;;;0.52;;
46953;SDS011;32707;43.886;12.874;2022-08-11T17:02:18;0.60;;;0.60;;
46953;SDS011;32707;43.886;12.874;2022-08-11T17:05:12;1.55;;;0.50;;
46953;SDS011;32707;43.886;12.874;2022-08-11T17:08:00;0.40;;;0.40;;
46953;SDS011;32707;43.886;12.874;2022-08-11T17:10:48;1.02;;;0.55;;
46953;SDS011;32707;43.886;12.874;2022-08-11T17:13:41;1.65;;;0.55;;
46953;SDS011;32707;43.886;12.874;2022-08-11T17:16:11;5.90;;;0.75;;
46953;SDS011;32707;43.886;12.874;2022-08-11T17:18:44;1.40;;;0.55;;
46953;SDS011;32707;43.886;12.874;2022-08-11T17:24:45;2.20;;;0.60;;
46953;SDS011;32707;43.886;12.874;2022-08-11T17:27:15;5.57;;;0.50;;
46953;SDS011;32707;43.886;12.874;2022-08-11T17:32:20;2.83;;;0.70;;
46953;SDS011;32707;43.886;12.874;2022-08-11T17:35:11;0.73;;;0.50;;
46953;SDS011;32707;43.886;12.874;2022-08-11T17:38:06;1.48;;;0.50;;
46953;SDS011;32707;43.886;12.874;2022-08-11T17:40:36;10.32;;;0.73;;
46953;SDS011;32707;43.886;12.874;2022-08-11T17:43:38;6.93;;;0.65;;
46953;SDS011;32707;43.886;12.874;2022-08-11T17:46:28;6.63;;;1.15;;
46953;SDS011;32707;43.886;12.874;2022-08-11T17:49:14;1.00;;;0.40;;
46953;SDS011;32707;43.886;12.874;2022-08-11T17:51:44;0.60;;;0.57;;
46953;SDS011;32707;43.886;12.874;2022-08-11T17:54:30;2.55;;;0.47;;
46953;SDS011;32707;43.886;12.874;2022-08-11T17:57:18;6.40;;;0.45;;
46953;SDS011;32707;43.886;12.874;2022-08-11T18:00:05;6.40;;;0.68;;
46953;SDS011;32707;43.886;12.874;2022-08-11T18:05:23;4.20;;;0.60;;
46953;SDS011;32707;43.886;12.874;2022-08-11T18:07:55;2.60;;;0.70;;
46953;SDS011;32707;43.886;12.874;2022-08-11T18:10:41;3.60;;;0.35;;
46953;SDS011;32707;43.886;12.874;2022-08-11T18:13:28;0.82;;;0.55;;
46953;SDS011;32707;43.886;12.874;2022-08-11T18:16:15;2.75;;;1.00;;
46953;SDS011;32707;43.886;12.874;2022-08-11T18:19:01;1.40;;;0.80;;
46953;SDS011;32707;43.886;12.874;2022-08-11T18:21:45;0.52;;;0.52;;
46953;SDS011;32707;43.886;12.874;2022-08-11T18:24:40;8.75;;;0.80;;
46953;SDS011;32707;43.886;12.874;2022-08-11T18:27:30;1.58;;;0.80;;
46953;SDS011;32707;43.886;12.874;2022-08-11T18:30:16;2.30;;;0.90;;
46953;SDS011;32707;43.886;12.874;2022-08-11T18:33:01;3.33;;;0.70;;
46953;SDS011;32707;43.886;12.874;2022-08-11T18:35:48;2.08;;;0.60;;
46953;SDS011;32707;43.886;12.874;2022-08-11T18:38:41;2.95;;;0.70;;
46953;SDS011;32707;43.886;12.874;2022-08-11T18:41:26;0.73;;;0.65;;
46953;SDS011;32707;43.886;12.874;2022-08-11T18:44:14;1.60;;;0.60;;
46953;SDS011;32707;43.886;12.874;2022-08-11T18:47:01;0.70;;;0.70;;
46953;SDS011;32707;43.886;12.874;2022-08-11T18:49:50;3.45;;;0.60;;
46953;SDS011;32707;43.886;12.874;2022-08-11T18:52:37;4.57;;;0.80;;
46953;SDS011;32707;43.886;12.874;2022-08-11T18:55:25;4.30;;;0.60;;
46953;SDS011;32707;43.886;12.874;2022-08-11T18:58:11;0.63;;;0.52;;
46953;SDS011;32707;43.886;12.874;2022-08-11T19:01:03;1.40;;;0.82;;
46953;SDS011;32707;43.886;12.874;2022-08-11T19:03:49;1.05;;;0.80;;
46953;SDS011;32707;43.886;12.874;2022-08-11T19:06:38;3.65;;;0.70;;
46953;SDS011;32707;43.886;12.874;2022-08-11T19:09:25;12.25;;;0.80;;
46953;SDS011;32707;43.886;12.874;2022-08-11T19:12:11;1.10;;;0.90;;
46953;SDS011;32707;43.886;12.874;2022-08-11T19:14:56;0.77;;;0.63;;
46953;SDS011;32707;43.886;12.874;2022-08-11T19:17:44;0.88;;;0.88;;
46953;SDS011;32707;43.886;12.874;2022-08-11T19:20:30;4.53;;;1.00;;
46953;SDS011;32707;43.886;12.874;2022-08-11T19:23:24;6.60;;;1.88;;